Time;durP1;ratioP1;P1;durP2;ratioP2;P2;SDS_P1;SDS_P2;PMS_P1;PMS_P2;Temp;Humidity;BMP_temperature;BMP_pressure;BME280_temperature;BME280_humidity;BME280_pressure;Samples;Min_cycle;Max_cycle;Signal;HPM_P1;HPM_P2
2021/11/08 00:02:05;;;;;;;23.95;2.78;;;7.90;99.90;;;;;;4974618;28;20046;-77
2021/11/08 00:04:32;;;;;;;21.70;3.17;;;7.90;99.90;;;;;;4960722;28;20129;-77
2021/11/08 00:06:59;;;;;;;16.60;4.03;;;7.90;99.90;;;;;;4949293;28;20070;-77
2021/11/08 00:09:25;;;;;;;31.27;3.50;;;7.90;99.90;;;;;;4948981;28;20043;-77
2021/11/08 00:11:51;;;;;;;23.98;2.95;;;7.80;99.90;;;;;;4936206;28;20082;-77
2021/11/08 00:14:20;;;;;;;22.73;2.55;;;7.90;99.90;;;;;;4942993;28;20030;-77
2021/11/08 00:16:56;;;;;;;25.73;3.15;;;7.80;99.90;;;;;;4950905;28;20088;-77
2021/11/08 00:21:48;;;;;;;20.73;3.25;;;8.00;99.90;;;;;;4944946;28;20043;-77
2021/11/08 00:24:20;;;;;;;27.33;3.75;;;7.90;99.90;;;;;;4938831;28;20051;-77
2021/11/08 00:26:46;;;;;;;21.88;2.70;;;7.90;99.90;;;;;;4957156;28;20042;-77
2021/11/08 00:29:12;;;;;;;22.27;2.83;;;8.00;99.90;;;;;;4957128;28;20061;-77
2021/11/08 00:31:37;;;;;;;20.75;2.78;;;8.00;99.90;;;;;;4954625;28;20059;-77
2021/11/08 00:34:03;;;;;;;20.98;2.55;;;8.10;99.90;;;;;;5004566;28;20038;-77
2021/11/08 00:36:29;;;;;;;22.10;2.75;;;8.10;99.90;;;;;;5014037;28;20045;-77
2021/11/08 00:38:55;;;;;;;13.27;2.20;;;8.20;99.90;;;;;;5054743;28;20055;-76
2021/11/08 00:41:21;;;;;;;12.90;1.73;;;8.20;99.90;;;;;;5053752;28;20199;-77
2021/11/08 00:43:46;;;;;;;11.52;1.52;;;8.10;99.90;;;;;;5054765;28;20263;-77
2021/11/08 00:46:12;;;;;;;13.35;1.80;;;8.20;99.90;;;;;;5041024;28;20094;-77
2021/11/08 00:48:38;;;;;;;9.27;1.23;;;8.30;99.90;;;;;;5061510;28;20048;-77
2021/11/08 00:51:04;;;;;;;10.13;1.50;;;8.40;99.90;;;;;;5056502;28;20041;-77
2021/11/08 00:53:31;;;;;;;7.38;1.38;;;8.30;99.90;;;;;;5038937;28;20063;-77
2021/11/08 00:56:00;;;;;;;8.80;1.25;;;8.30;99.90;;;;;;5055884;28;20044;-77
2021/11/08 00:58:32;;;;;;;10.52;1.25;;;8.20;99.90;;;;;;5052609;28;20052;-77
2021/11/08 01:01:02;;;;;;;6.72;1.15;;;8.10;99.90;;;;;;5051356;28;20033;-77
2021/11/08 01:03:28;;;;;;;11.63;1.55;;;8.20;99.90;;;;;;5059659;28;20052;-77
2021/11/08 01:05:54;;;;;;;10.05;1.75;;;8.10;99.90;;;;;;5043794;28;20049;-77
2021/11/08 01:08:19;;;;;;;5.75;1.20;;;8.10;99.90;;;;;;5051092;28;20040;-77
2021/11/08 01:10:45;;;;;;;11.32;1.40;;;8.00;99.90;;;;;;5071449;28;20047;-77
2021/11/08 01:13:11;;;;;;;7.63;1.10;;;8.00;99.90;;;;;;5043105;28;20083;-77
2021/11/08 01:15:37;;;;;;;13.57;1.73;;;8.00;99.90;;;;;;5054504;28;20052;-77
2021/11/08 01:18:03;;;;;;;9.13;1.45;;;7.90;99.90;;;;;;5029677;28;20051;-77
2021/11/08 01:20:34;;;;;;;14.07;1.83;;;7.90;99.90;;;;;;5036087;28;20143;-77
2021/11/08 01:23:03;;;;;;;9.95;1.27;;;7.90;99.90;;;;;;5050440;28;20253;-77
2021/11/08 01:25:29;;;;;;;16.27;2.08;;;7.90;99.90;;;;;;5037247;28;20044;-77
2021/11/08 01:27:57;;;;;;;12.70;1.90;;;7.90;99.90;;;;;;5052792;28;20100;-76
2021/11/08 01:30:25;;;;;;;14.80;2.10;;;7.90;99.90;;;;;;5069338;28;20372;-76
2021/11/08 01:32:58;;;;;;;13.43;1.98;;;7.80;99.90;;;;;;5052708;28;20037;-77
2021/11/08 01:35:55;;;;;;;13.35;1.65;;;7.90;99.90;;;;;;5053680;28;20041;-77
2021/11/08 01:40:44;;;;;;;21.27;2.15;;;7.80;99.90;;;;;;5052653;28;20578;-77
2021/11/08 01:43:12;;;;;;;15.07;2.63;;;7.70;99.90;;;;;;5062197;28;20045;-77
2021/11/08 01:45:38;;;;;;;15.73;2.13;;;7.70;99.90;;;;;;5083342;28;20036;-77
2021/11/08 01:48:04;;;;;;;21.30;2.60;;;7.70;99.90;;;;;;5054270;28;20032;-77
2021/11/08 01:50:31;;;;;;;10.88;1.52;;;7.70;99.90;;;;;;5031462;28;20224;-76
2021/11/08 01:52:58;;;;;;;16.58;1.95;;;7.60;99.90;;;;;;5036150;28;20045;-77
2021/11/08 01:55:26;;;;;;;13.65;1.90;;;7.60;99.90;;;;;;5054405;28;20132;-77
2021/11/08 01:57:52;;;;;;;17.90;2.30;;;7.50;99.90;;;;;;5070206;28;20127;-77
2021/11/08 02:00:19;;;;;;;12.52;1.70;;;7.50;99.90;;;;;;5048519;28;20045;-76
2021/11/08 02:02:45;;;;;;;12.13;1.60;;;7.40;99.90;;;;;;5072598;28;20039;-76
2021/11/08 02:05:11;;;;;;;11.20;1.88;;;7.40;99.90;;;;;;5054343;28;20044;-76
2021/11/08 02:07:38;;;;;;;9.38;1.60;;;7.30;99.90;;;;;;5054321;28;20459;-77
2021/11/08 02:10:06;;;;;;;17.50;1.90;;;7.20;99.90;;;;;;5044846;28;20044;-76
2021/11/08 02:12:32;;;;;;;13.90;2.20;;;7.20;99.90;;;;;;5068183;28;20052;-76
2021/11/08 02:14:59;;;;;;;15.55;1.92;;;7.10;99.90;;;;;;5040765;28;20048;-76
2021/11/08 02:17:27;;;;;;;12.27;1.92;;;7.10;99.90;;;;;;5051174;28;20044;-77
2021/11/08 02:19:57;;;;;;;16.65;2.05;;;7.00;99.90;;;;;;5043244;28;20055;-77
2021/11/08 02:22:23;;;;;;;12.07;1.85;;;6.90;99.90;;;;;;5048933;28;20043;-77
2021/11/08 02:24:50;;;;;;;13.95;1.73;;;6.90;99.90;;;;;;5042205;28;20482;-77
2021/11/08 02:27:20;;;;;;;10.88;1.77;;;6.80;99.90;;;;;;5037135;28;20040;-77
2021/11/08 02:29:46;;;;;;;19.77;2.40;;;6.80;99.90;;;;;;5053408;28;20119;-77
2021/11/08 02:32:12;;;;;;;12.82;1.83;;;6.90;99.90;;;;;;5054938;28;20147;-77
2021/11/08 02:34:38;;;;;;;15.25;2.20;;;6.80;99.90;;;;;;5055436;28;20514;-77
2021/11/08 02:37:05;;;;;;;21.75;2.10;;;6.80;99.90;;;;;;5067217;28;20063;-77
2021/11/08 02:39:37;;;;;;;15.65;1.67;;;6.70;99.90;;;;;;5036134;28;20480;-77
2021/11/08 02:42:04;;;;;;;18.40;2.45;;;7.30;99.90;;;;;;5042999;28;20033;-77
2021/11/08 02:44:30;;;;;;;14.85;1.75;;;6.70;99.90;;;;;;5050180;28;20053;-77
2021/11/08 02:46:56;;;;;;;11.90;1.65;;;6.70;99.90;;;;;;5044685;28;20090;-77
2021/11/08 02:49:31;;;;;;;18.08;2.17;;;6.70;99.90;;;;;;5050991;28;20125;-77
2021/11/08 02:52:04;;;;;;;19.63;2.45;;;6.70;99.90;;;;;;5052879;28;20127;-77
2021/11/08 02:54:37;;;;;;;13.60;2.20;;;6.70;99.90;;;;;;5050481;28;20116;-77
2021/11/08 02:57:08;;;;;;;16.80;2.42;;;6.70;99.90;;;;;;5051901;28;20044;-77
2021/11/08 02:59:36;;;;;;;17.33;2.20;;;6.70;99.90;;;;;;5034144;28;20503;-77
2021/11/08 03:02:04;;;;;;;22.65;2.30;;;6.70;99.90;;;;;;5047805;28;20593;-76
2021/11/08 03:04:33;;;;;;;20.10;2.40;;;6.70;99.90;;;;;;5042974;28;20037;-77
2021/11/08 03:06:59;;;;;;;26.55;2.75;;;6.80;99.90;;;;;;5050731;28;20080;-77
2021/11/08 03:09:35;;;;;;;24.52;2.78;;;6.80;99.90;;;;;;5048031;28;20049;-77
2021/11/08 03:12:08;;;;;;;17.60;2.30;;;6.80;99.90;;;;;;5049314;28;20037;-77
2021/11/08 03:14:37;;;;;;;14.32;1.92;;;6.80;99.90;;;;;;5044317;28;20036;-77
2021/11/08 03:17:04;;;;;;;28.65;3.30;;;6.80;99.90;;;;;;5034627;28;20052;-77
2021/11/08 03:19:35;;;;;;;17.15;2.20;;;6.80;99.90;;;;;;5034155;28;20105;-77
2021/11/08 03:22:06;;;;;;;22.15;2.28;;;6.80;99.90;;;;;;5067412;28;20091;-77
2021/11/08 03:27:12;;;;;;;15.48;2.42;;;6.80;99.90;;;;;;5038384;28;20063;-77
2021/11/08 03:29:38;;;;;;;12.63;1.98;;;6.80;99.90;;;;;;5040989;28;20144;-77
2021/11/08 03:32:05;;;;;;;21.08;2.38;;;6.90;99.90;;;;;;5036191;28;20530;-77
2021/11/08 03:34:30;;;;;;;18.83;2.15;;;6.90;99.90;;;;;;5045529;28;20041;-77
2021/11/08 03:36:57;;;;;;;20.00;2.67;;;6.90;99.90;;;;;;5043977;28;20449;-77
2021/11/08 03:39:23;;;;;;;17.10;2.30;;;7.30;99.90;;;;;;5063415;28;20048;-77
2021/11/08 03:41:49;;;;;;;20.05;2.30;;;6.90;99.90;;;;;;5037673;28;20037;-77
2021/11/08 03:44:15;;;;;;;18.33;2.85;;;6.90;99.90;;;;;;5035897;28;20056;-77
2021/11/08 03:46:41;;;;;;;15.40;1.92;;;7.00;99.90;;;;;;5020673;28;20044;-77
2021/11/08 03:49:06;;;;;;;14.18;2.25;;;7.00;99.90;;;;;;5040192;28;20029;-77
2021/11/08 03:51:33;;;;;;;17.65;2.33;;;7.10;99.90;;;;;;5039349;28;20060;-77
2021/11/08 03:53:59;;;;;;;17.02;1.88;;;7.00;99.90;;;;;;5028964;28;20049;-77
2021/11/08 03:56:25;;;;;;;20.23;1.63;;;7.20;99.90;;;;;;5062511;28;20402;-77
2021/11/08 03:58:51;;;;;;;19.15;1.98;;;7.40;99.90;;;;;;5045663;28;20372;-77
2021/11/08 04:01:17;;;;;;;12.10;2.00;;;7.50;99.90;;;;;;5048275;28;20028;-77
2021/11/08 04:03:43;;;;;;;17.33;2.13;;;7.60;99.90;;;;;;5042463;28;20722;-77
2021/11/08 04:06:09;;;;;;;14.38;1.65;;;7.60;99.90;;;;;;5050690;28;20230;-77
2021/11/08 04:08:35;;;;;;;16.15;1.98;;;7.70;99.90;;;;;;5047369;28;20044;-77
2021/11/08 04:11:01;;;;;;;19.77;2.17;;;7.70;99.90;;;;;;5038055;28;20090;-77
2021/11/08 04:13:30;;;;;;;19.45;2.10;;;7.70;99.90;;;;;;5050376;28;20506;-77
2021/11/08 04:15:59;;;;;;;14.25;1.83;;;7.70;99.90;;;;;;5067947;28;20040;-77
2021/11/08 04:18:26;;;;;;;17.80;1.90;;;7.70;99.90;;;;;;5025465;28;20492;-77
2021/11/08 04:20:53;;;;;;;17.92;2.33;;;7.70;99.90;;;;;;5025694;28;20063;-77
2021/11/08 04:23:21;;;;;;;17.17;2.80;;;7.60;99.90;;;;;;5053282;28;20383;-77
2021/11/08 04:25:48;;;;;;;16.27;2.03;;;7.60;99.90;;;;;;5034084;28;20037;-77
2021/11/08 04:28:14;;;;;;;14.63;2.15;;;7.50;99.90;;;;;;5062755;28;20052;-76
2021/11/08 04:30:43;;;;;;;17.48;2.22;;;7.40;99.90;;;;;;5035392;28;20400;-77
2021/11/08 04:33:25;;;;;;;19.27;2.10;;;7.40;99.90;;;;;;5035348;28;20507;-77
2021/11/08 04:41:14;;;;;;;13.68;1.80;;;7.20;99.90;;;;;;5038079;28;20044;-77
2021/11/08 04:51:41;;;;;;;17.38;2.22;;;7.10;99.90;;;;;;5054105;28;20062;-77
2021/11/08 05:32:20;;;;;;;15.93;2.30;;;7.20;99.90;;;;;;4965049;28;20050;-77
2021/11/08 05:34:46;;;;;;;18.65;2.17;;;7.20;99.90;;;;;;5032320;28;20048;-77
2021/11/08 05:37:12;;;;;;;17.65;2.10;;;7.20;99.90;;;;;;5031266;28;20041;-77
2021/11/08 05:39:46;;;;;;;17.95;2.15;;;7.30;99.90;;;;;;5050167;28;20146;-77
2021/11/08 05:42:12;;;;;;;13.40;1.92;;;7.30;99.90;;;;;;5028092;28;20032;-77
2021/11/08 05:44:40;;;;;;;20.77;2.25;;;7.30;99.90;;;;;;5068135;28;20036;-77
2021/11/08 05:47:06;;;;;;;16.88;1.90;;;7.30;99.90;;;;;;5048389;28;20443;-78
2021/11/08 05:49:32;;;;;;;20.98;2.58;;;7.30;99.90;;;;;;5050777;28;20051;-77
2021/11/08 05:51:58;;;;;;;17.75;2.60;;;7.30;99.90;;;;;;5068553;28;20111;-76
2021/11/08 05:54:24;;;;;;;12.93;1.80;;;7.30;99.90;;;;;;5053631;28;20033;-75
2021/11/08 06:51:13;;;;;;;15.93;2.05;;;7.30;99.90;;;;;;5048457;28;19924;-76
2021/11/08 06:53:40;;;;;;;22.25;3.08;;;7.30;99.90;;;;;;5074725;28;20047;-75
2021/11/08 06:56:06;;;;;;;21.35;2.38;;;7.30;99.90;;;;;;5035912;28;20056;-75
2021/11/08 06:58:31;;;;;;;20.05;2.40;;;7.30;99.90;;;;;;5057703;28;20518;-75
2021/11/08 07:00:57;;;;;;;19.40;2.72;;;7.20;99.90;;;;;;5048594;28;20454;-76
2021/11/08 07:03:23;;;;;;;14.55;2.33;;;7.40;99.90;;;;;;5033734;28;20041;-77
2021/11/08 07:05:49;;;;;;;25.25;2.70;;;7.30;99.90;;;;;;5042128;28;20076;-77
2021/11/08 07:08:15;;;;;;;16.33;2.35;;;7.30;99.90;;;;;;5026748;28;20076;-77
2021/11/08 07:10:41;;;;;;;18.38;2.20;;;7.30;99.90;;;;;;5037639;28;20040;-76
2021/11/08 07:13:07;;;;;;;24.10;3.03;;;7.40;99.90;;;;;;5054572;28;20040;-76
2021/11/08 07:15:34;;;;;;;19.00;2.45;;;7.40;99.90;;;;;;5057748;28;20040;-77
2021/11/08 07:17:59;;;;;;;23.27;2.97;;;7.40;99.90;;;;;;5029339;28;20044;-77
2021/11/08 07:20:26;;;;;;;19.45;2.72;;;7.50;99.90;;;;;;5030407;28;20045;-77
2021/11/08 07:22:52;;;;;;;20.33;2.90;;;7.50;99.90;;;;;;5056188;28;20388;-77
2021/11/08 07:25:18;;;;;;;24.75;2.80;;;7.60;99.90;;;;;;5039271;28;20040;-77
2021/11/08 07:27:46;;;;;;;23.27;2.80;;;7.60;99.90;;;;;;5018307;28;20051;-77
2021/11/08 07:30:13;;;;;;;14.68;2.47;;;7.60;99.90;;;;;;5030613;28;20049;-78
2021/11/08 07:32:39;;;;;;;25.25;2.50;;;7.70;99.90;;;;;;5042636;28;20043;-78
2021/11/08 07:35:06;;;;;;;21.73;3.17;;;7.70;99.90;;;;;;5045528;28;20399;-76
2021/11/08 07:37:32;;;;;;;15.90;2.42;;;7.80;99.90;;;;;;5043967;28;20037;-76
2021/11/08 07:39:58;;;;;;;19.05;2.45;;;8.60;99.90;;;;;;5042736;28;20057;-76
2021/11/08 07:42:23;;;;;;;28.77;3.53;;;7.90;99.90;;;;;;5049832;28;20376;-77
2021/11/08 07:44:49;;;;;;;21.88;2.97;;;8.00;99.90;;;;;;5048291;28;20044;-77
2021/11/08 07:47:15;;;;;;;19.40;2.40;;;8.00;99.90;;;;;;5036572;28;20047;-77
2021/11/08 07:49:41;;;;;;;19.17;2.80;;;8.10;99.90;;;;;;5043580;28;20051;-77
2021/11/08 07:52:08;;;;;;;33.17;2.92;;;8.10;99.90;;;;;;5046532;28;20480;-77
2021/11/08 07:54:36;;;;;;;24.15;2.88;;;8.20;99.90;;;;;;5055185;28;20071;-77
2021/11/08 07:57:03;;;;;;;23.50;2.53;;;8.30;99.90;;;;;;5038782;28;20054;-77
2021/11/08 07:59:29;;;;;;;21.67;2.55;;;8.30;99.90;;;;;;5048660;28;20043;-77
2021/11/08 08:01:57;;;;;;;20.33;2.83;;;8.40;99.90;;;;;;5044720;28;20045;-78
2021/11/08 08:04:24;;;;;;;17.10;2.72;;;8.50;99.90;;;;;;5035949;28;20141;-79
2021/11/08 08:06:50;;;;;;;20.95;2.70;;;8.50;99.90;;;;;;5048820;28;20041;-78
2021/11/08 08:09:17;;;;;;;21.17;2.70;;;8.50;99.90;;;;;;5047905;28;20075;-78
2021/11/08 08:11:44;;;;;;;17.80;2.40;;;8.70;99.90;;;;;;5067458;28;20049;-78
2021/11/08 08:14:10;;;;;;;17.40;2.17;;;8.60;99.90;;;;;;5036134;28;20111;-78
2021/11/08 08:16:35;;;;;;;19.08;2.35;;;8.70;99.90;;;;;;5050911;28;20056;-79
2021/11/08 08:19:02;;;;;;;17.95;2.55;;;8.80;99.90;;;;;;5060175;28;20072;-79
2021/11/08 08:21:27;;;;;;;20.65;3.28;;;8.90;99.90;;;;;;5030463;28;20574;-79
2021/11/08 08:23:58;;;;;;;16.58;1.98;;;8.90;99.90;;;;;;5048750;28;20037;-79
2021/11/08 08:26:28;;;;;;;16.75;2.25;;;9.00;99.90;;;;;;5049083;28;20047;-79
2021/11/08 08:28:54;;;;;;;17.65;2.80;;;8.90;99.90;;;;;;5031619;28;20056;-79
2021/11/08 08:31:20;;;;;;;13.63;2.38;;;9.00;99.90;;;;;;5050648;28;20044;-78
2021/11/08 08:33:46;;;;;;;20.08;2.42;;;9.10;99.90;;;;;;5059127;28;20049;-78
2021/11/08 08:36:11;;;;;;;13.70;2.17;;;9.10;99.90;;;;;;5049880;28;20044;-78
2021/11/08 08:38:38;;;;;;;19.15;2.45;;;9.30;99.90;;;;;;5049292;28;20044;-79
2021/11/08 08:41:04;;;;;;;17.38;2.30;;;9.30;99.90;;;;;;5034361;28;20131;-79
2021/11/08 08:43:30;;;;;;;15.00;2.17;;;9.30;99.90;;;;;;5042771;28;20052;-79
2021/11/08 08:45:57;;;;;;;21.13;2.85;;;9.30;99.90;;;;;;5047322;28;20040;-79
2021/11/08 08:48:25;;;;;;;21.05;2.72;;;9.30;99.90;;;;;;5033170;28;20045;-79
2021/11/08 08:50:51;;;;;;;21.67;2.80;;;9.30;99.90;;;;;;5047955;28;20169;-80
2021/11/08 08:53:18;;;;;;;18.15;2.35;;;9.40;99.90;;;;;;5047837;28;20219;-78
2021/11/08 08:55:44;;;;;;;16.02;3.03;;;9.40;99.90;;;;;;5045867;28;20056;-80
2021/11/08 08:58:12;;;;;;;22.65;2.72;;;9.40;99.90;;;;;;5050917;28;20120;-78
2021/11/08 09:00:43;;;;;;;18.88;2.30;;;9.40;99.90;;;;;;5057287;28;20357;-76
2021/11/08 09:03:10;;;;;;;25.40;2.47;;;9.40;99.90;;;;;;5056909;28;20044;-77
2021/11/08 09:05:36;;;;;;;16.02;2.35;;;9.40;99.90;;;;;;5068227;28;20098;-78
2021/11/08 09:08:02;;;;;;;13.82;2.78;;;9.30;99.90;;;;;;5076628;28;20083;-77
2021/11/08 09:10:30;;;;;;;18.15;2.42;;;9.30;99.90;;;;;;5057433;28;20155;-76
2021/11/08 09:12:58;;;;;;;21.70;2.80;;;9.30;99.90;;;;;;5039801;28;20048;-79
2021/11/08 09:15:25;;;;;;;15.77;2.40;;;9.30;99.90;;;;;;5043612;28;20048;-77
2021/11/08 09:17:51;;;;;;;20.58;2.45;;;9.30;99.90;;;;;;5042292;28;20476;-78
2021/11/08 09:20:19;;;;;;;13.23;1.63;;;9.30;99.90;;;;;;5045240;28;20052;-78
2021/11/08 09:22:48;;;;;;;15.88;2.45;;;9.30;99.90;;;;;;5065779;28;20036;-78
2021/11/08 09:25:14;;;;;;;15.00;1.90;;;9.30;99.90;;;;;;5049815;28;20040;-76
2021/11/08 09:27:43;;;;;;;15.60;2.50;;;9.40;99.90;;;;;;5049667;28;20077;-77
2021/11/08 09:30:12;;;;;;;17.15;2.58;;;9.30;99.90;;;;;;5051470;28;20513;-77
2021/11/08 09:32:38;;;;;;;18.90;2.67;;;9.40;99.90;;;;;;5046793;28;20053;-78
2021/11/08 09:35:06;;;;;;;23.88;2.30;;;9.40;99.90;;;;;;5048941;28;20098;-77
2021/11/08 09:37:34;;;;;;;24.10;2.78;;;9.50;99.90;;;;;;5050460;28;20057;-77
2021/11/08 09:40:00;;;;;;;15.52;2.20;;;9.50;99.90;;;;;;5050577;28;20571;-77
2021/11/08 09:42:31;;;;;;;19.75;2.40;;;9.50;99.90;;;;;;5052502;28;20044;-77
2021/11/08 09:45:00;;;;;;;18.35;1.95;;;9.60;99.90;;;;;;5038303;28;20040;-78
2021/11/08 09:47:27;;;;;;;14.60;2.00;;;9.70;99.90;;;;;;5069605;28;20446;-78
2021/11/08 09:49:55;;;;;;;14.60;2.17;;;9.70;99.90;;;;;;5051476;28;20537;-77
2021/11/08 09:52:21;;;;;;;14.48;1.90;;;9.70;99.90;;;;;;5049433;28;20048;-78
2021/11/08 09:54:48;;;;;;;13.82;1.90;;;9.70;99.90;;;;;;5032308;28;20041;-78
2021/11/08 09:57:14;;;;;;;9.60;2.00;;;9.80;99.90;;;;;;5055415;28;20482;-77
2021/11/08 09:59:40;;;;;;;10.00;1.65;;;9.80;99.90;;;;;;5040692;28;20410;-79
2021/11/08 10:02:13;;;;;;;14.20;1.85;;;9.80;99.90;;;;;;5045037;28;20172;-78
2021/11/08 10:04:39;;;;;;;9.18;1.42;;;9.70;99.90;;;;;;5037601;28;20812;-77
2021/11/08 10:07:05;;;;;;;17.58;2.13;;;9.80;99.90;;;;;;5055613;28;20085;-77
2021/11/08 10:09:31;;;;;;;20.58;2.83;;;9.70;99.90;;;;;;5038315;28;20072;-77
2021/11/08 10:11:57;;;;;;;18.80;2.38;;;9.90;99.90;;;;;;5057634;28;20410;-78
2021/11/08 10:14:23;;;;;;;17.48;2.33;;;9.80;99.90;;;;;;5067733;28;20083;-77
2021/11/08 10:16:51;;;;;;;19.50;2.95;;;9.80;99.90;;;;;;5036709;28;20337;-77
2021/11/08 10:19:26;;;;;;;13.82;2.22;;;9.80;99.90;;;;;;5052825;28;20048;-78
2021/11/08 10:21:54;;;;;;;17.00;2.67;;;9.80;99.90;;;;;;5069890;28;20459;-77
2021/11/08 10:24:29;;;;;;;12.82;2.03;;;9.80;99.90;;;;;;5057322;28;20048;-78
2021/11/08 10:26:56;;;;;;;;;;;9.80;99.90;;;;;;5033200;28;20048;-77
2021/11/08 10:29:24;;;;;;;12.55;2.13;;;9.90;99.90;;;;;;5051509;28;19916;-77
2021/11/08 10:31:54;;;;;;;19.95;2.42;;;9.90;99.90;;;;;;5047814;28;20493;-77
2021/11/08 10:34:21;;;;;;;12.38;1.95;;;9.90;99.90;;;;;;5053115;28;20076;-77
2021/11/08 10:37:02;;;;;;;14.35;1.75;;;10.00;99.90;;;;;;5051647;28;20035;-78
2021/11/08 10:39:34;;;;;;;18.88;2.08;;;10.00;99.90;;;;;;5055173;28;20088;-76
2021/11/08 10:42:00;;;;;;;13.40;1.85;;;10.10;99.90;;;;;;5054540;28;20422;-76
2021/11/08 10:44:28;;;;;;;20.20;2.20;;;10.20;99.90;;;;;;5050020;28;20040;-78
2021/11/08 10:47:07;;;;;;;18.67;2.08;;;10.20;99.90;;;;;;5052937;28;20048;-78
2021/11/08 10:49:36;;;;;;;22.80;2.70;;;10.30;99.90;;;;;;5068247;28;20048;-80
2021/11/08 10:52:03;;;;;;;17.60;2.47;;;10.50;99.90;;;;;;5049922;28;20052;-76
2021/11/08 10:54:31;;;;;;;14.02;2.25;;;10.50;99.90;;;;;;5052472;28;20040;-77
2021/11/08 10:57:01;;;;;;;18.55;2.47;;;10.50;99.90;;;;;;5049777;28;20040;-77
2021/11/08 10:59:33;;;;;;;15.35;2.13;;;10.70;99.90;;;;;;5050912;28;20399;-77
2021/11/08 11:02:01;;;;;;;19.63;2.35;;;10.70;99.90;;;;;;5050492;28;20049;-76
2021/11/08 11:04:40;;;;;;;11.52;1.80;;;10.70;99.90;;;;;;5051006;28;20047;-75
2021/11/08 11:07:07;;;;;;;21.23;2.13;;;10.90;99.90;;;;;;5028618;28;20045;-76
2021/11/08 11:09:37;;;;;;;18.40;1.70;;;10.90;99.90;;;;;;5052439;28;20106;-77
2021/11/08 11:12:14;;;;;;;14.48;1.88;;;11.00;99.90;;;;;;5044669;28;20182;-76
2021/11/08 11:15:09;;;;;;;10.95;1.42;;;11.00;99.90;;;;;;5033287;28;20036;-76
2021/11/08 11:17:55;;;;;;;16.17;2.10;;;11.20;99.90;;;;;;5051544;28;20127;-75
2021/11/08 11:20:25;;;;;;;21.05;2.47;;;11.20;99.90;;;;;;5036521;28;20063;-74
2021/11/08 11:23:15;;;;;;;16.10;2.33;;;11.20;99.90;;;;;;5051734;28;20436;-75
2021/11/08 11:25:50;;;;;;;17.88;2.38;;;11.20;99.90;;;;;;5068612;28;20091;-76
2021/11/08 11:28:21;;;;;;;;;;;11.20;99.90;;;;;;5052234;28;20084;-77
2021/11/08 11:30:47;;;;;;;14.85;2.67;;;11.20;99.90;;;;;;5035887;28;19923;-77
2021/11/08 11:33:21;;;;;;;16.63;2.20;;;11.20;99.90;;;;;;5052794;28;20056;-81
2021/11/08 11:36:08;;;;;;;24.90;2.85;;;11.30;99.90;;;;;;5056867;28;20044;-78
2021/11/08 11:38:40;;;;;;;10.68;2.33;;;11.30;99.90;;;;;;5037131;28;20054;-78
2021/11/08 11:41:14;;;;;;;14.88;2.85;;;11.40;99.90;;;;;;5052583;28;20483;-78
2021/11/08 11:44:10;;;;;;;16.92;2.25;;;11.40;99.90;;;;;;5051906;28;20048;-82
2021/11/08 11:47:22;;;;;;;12.70;1.75;;;11.50;99.90;;;;;;5040210;28;20052;-82
2021/11/08 11:50:12;;;;;;;14.70;2.03;;;11.90;99.90;;;;;;5031472;28;20139;-81
2021/11/08 11:52:47;;;;;;;10.32;1.80;;;11.60;99.90;;;;;;5013533;28;20053;-81
2021/11/08 11:55:13;;;;;;;13.13;2.08;;;11.50;99.90;;;;;;4998868;28;20424;-80
2021/11/08 11:57:39;;;;;;;14.43;2.03;;;11.50;99.90;;;;;;5018978;28;20110;-77
2021/11/08 12:00:06;;;;;;;17.77;2.33;;;11.50;99.90;;;;;;5027879;28;20056;-77
2021/11/08 12:02:32;;;;;;;20.38;2.58;;;11.50;99.90;;;;;;5022689;28;20053;-80
2021/11/08 12:04:58;;;;;;;13.38;1.92;;;11.50;99.90;;;;;;5021576;28;20053;-78
2021/11/08 12:07:24;;;;;;;18.05;2.70;;;11.50;99.90;;;;;;5022341;28;20103;-78
2021/11/08 12:09:50;;;;;;;20.50;2.72;;;11.50;99.90;;;;;;5013124;28;20045;-78
2021/11/08 12:12:25;;;;;;;21.60;2.88;;;11.60;99.90;;;;;;5029149;28;20061;-78
2021/11/08 12:15:09;;;;;;;27.73;3.40;;;11.60;99.90;;;;;;5016149;28;20136;-76
2021/11/08 12:17:42;;;;;;;19.40;2.78;;;11.70;99.90;;;;;;5020415;28;20164;-78
2021/11/08 12:20:15;;;;;;;24.63;3.35;;;11.60;99.90;;;;;;5027229;28;20126;-78
2021/11/08 12:22:41;;;;;;;30.45;3.92;;;11.60;99.90;;;;;;5032151;28;20052;-77
2021/11/08 12:25:15;;;;;;;23.10;3.10;;;11.60;99.90;;;;;;5042720;28;20467;-78
2021/11/08 12:27:49;;;;;;;24.08;2.80;;;11.60;99.90;;;;;;5052965;28;20049;-77
2021/11/08 12:30:19;;;;;;;25.05;3.33;;;11.60;99.90;;;;;;5057058;28;20049;-78
2021/11/08 12:32:49;;;;;;;21.02;2.95;;;11.70;99.90;;;;;;5042263;28;20053;-78
2021/11/08 12:35:18;;;;;;;33.10;4.18;;;11.60;99.90;;;;;;5056213;28;20151;-78
2021/11/08 12:37:46;;;;;;;21.90;3.10;;;11.60;99.90;;;;;;5036814;28;20049;-78
2021/11/08 12:40:17;;;;;;;23.27;3.58;;;11.60;99.90;;;;;;5055371;28;20118;-77
2021/11/08 12:42:47;;;;;;;22.30;2.75;;;11.60;99.90;;;;;;5095410;28;20387;-78
2021/11/08 12:45:24;;;;;;;17.75;2.85;;;11.70;99.90;;;;;;5076130;28;20154;-77
2021/11/08 12:48:10;;;;;;;29.25;3.85;;;11.70;99.90;;;;;;5064538;28;20094;-77
2021/11/08 12:50:42;;;;;;;20.08;3.20;;;11.70;99.90;;;;;;5074393;28;20140;-77
2021/11/08 12:53:20;;;;;;;20.77;3.17;;;11.70;99.90;;;;;;5036605;28;20049;-78
2021/11/08 12:55:46;;;;;;;23.52;3.22;;;11.70;99.90;;;;;;5059333;28;20461;-78
2021/11/08 12:58:12;;;;;;;27.40;3.60;;;11.70;99.90;;;;;;5067530;28;20079;-78
2021/11/08 13:00:40;;;;;;;21.70;3.08;;;11.60;99.90;;;;;;5071275;28;20080;-78
2021/11/08 13:03:16;;;;;;;23.77;3.35;;;11.60;99.90;;;;;;5057000;28;20052;-78
2021/11/08 13:05:47;;;;;;;26.40;3.50;;;11.50;99.90;;;;;;5041896;28;20052;-78
2021/11/08 13:08:24;;;;;;;24.23;3.47;;;11.70;99.90;;;;;;5055209;28;20049;-78
2021/11/08 13:11:00;;;;;;;17.30;3.28;;;11.80;99.90;;;;;;5038383;28;20060;-78
2021/11/08 13:13:27;;;;;;;18.65;3.58;;;11.70;99.90;;;;;;5063171;28;20411;-77
2021/11/08 13:16:10;;;;;;;17.33;2.95;;;11.80;99.90;;;;;;5058941;28;20149;-77
2021/11/08 13:18:40;;;;;;;24.40;3.53;;;11.80;99.90;;;;;;5055255;28;20057;-78
2021/11/08 13:21:07;;;;;;;21.60;2.80;;;11.90;99.90;;;;;;5040173;28;20269;-78
2021/11/08 13:23:35;;;;;;;22.95;2.75;;;11.90;99.90;;;;;;5071763;28;20041;-78
2021/11/08 13:26:01;;;;;;;25.40;3.15;;;11.90;99.90;;;;;;5034657;28;20041;-78
2021/11/08 13:28:31;;;;;;;22.70;3.10;;;11.90;99.90;;;;;;5070969;28;20113;-77
2021/11/08 13:30:59;;;;;;;26.77;3.67;;;11.90;99.90;;;;;;5038112;28;20518;-76
2021/11/08 13:33:31;;;;;;;24.20;3.47;;;12.00;99.90;;;;;;5061394;28;20036;-77
2021/11/08 13:35:59;;;;;;;20.35;2.83;;;11.90;99.90;;;;;;5058356;28;20062;-76
2021/11/08 13:38:32;;;;;;;25.27;3.38;;;12.00;99.90;;;;;;5058986;28;20130;-78
2021/11/08 13:41:16;;;;;;;16.45;2.50;;;12.00;99.90;;;;;;5057446;28;20127;-77
2021/11/08 13:43:43;;;;;;;15.63;2.78;;;11.80;99.90;;;;;;5047037;28;20079;-77
2021/11/08 13:46:15;;;;;;;19.98;3.22;;;11.70;99.90;;;;;;5054103;28;20399;-77
2021/11/08 13:48:44;;;;;;;16.20;3.15;;;11.60;99.90;;;;;;5038218;28;20102;-77
2021/11/08 13:51:27;;;;;;;18.73;2.70;;;11.60;99.90;;;;;;5054441;28;20053;-77
2021/11/08 13:54:05;;;;;;;16.63;2.47;;;11.50;99.90;;;;;;5070980;28;20055;-77
2021/11/08 13:56:42;;;;;;;17.27;2.67;;;11.50;99.90;;;;;;5062332;28;20040;-77
2021/11/08 13:59:11;;;;;;;17.98;3.00;;;11.40;99.90;;;;;;5058847;28;20475;-77
2021/11/08 14:01:40;;;;;;;18.23;2.55;;;11.40;99.90;;;;;;5070214;28;20071;-77
2021/11/08 14:04:07;;;;;;;12.48;2.03;;;11.40;99.90;;;;;;5053735;28;20037;-77
2021/11/08 14:06:34;;;;;;;20.20;2.60;;;11.40;99.90;;;;;;5053939;28;20115;-77
2021/11/08 14:09:02;;;;;;;15.95;2.40;;;11.40;99.90;;;;;;5057255;28;20040;-77
2021/11/08 14:11:36;;;;;;;18.48;3.05;;;11.40;99.90;;;;;;5037732;28;20048;-77
2021/11/08 14:14:10;;;;;;;12.43;2.33;;;11.30;99.90;;;;;;5037436;28;20127;-77
2021/11/08 14:16:38;;;;;;;11.98;2.03;;;11.40;99.90;;;;;;5053550;28;20317;-77
2021/11/08 14:19:05;;;;;;;12.43;1.90;;;11.40;99.90;;;;;;5041822;28;20094;-76
2021/11/08 14:21:31;;;;;;;16.70;2.15;;;11.50;99.90;;;;;;5055146;28;20484;-76
2021/11/08 14:24:07;;;;;;;15.05;2.03;;;11.50;99.90;;;;;;5052915;28;20391;-77
2021/11/08 14:26:35;;;;;;;11.40;2.08;;;11.40;99.90;;;;;;5048041;28;20045;-80
2021/11/08 14:29:10;;;;;;;18.77;2.63;;;11.40;99.90;;;;;;5031681;28;20141;-77
2021/11/08 14:31:36;;;;;;;14.50;2.28;;;11.30;99.90;;;;;;5050882;28;20079;-76
2021/11/08 14:34:05;;;;;;;14.45;2.33;;;11.20;99.90;;;;;;5067747;28;20051;-75
2021/11/08 14:36:38;;;;;;;14.52;2.05;;;11.10;99.90;;;;;;5050609;28;20044;-75
2021/11/08 14:39:11;;;;;;;15.18;2.38;;;11.00;99.90;;;;;;5051996;28;20337;-76
2021/11/08 14:41:48;;;;;;;11.40;1.90;;;11.00;99.90;;;;;;5067474;28;20062;-76
2021/11/08 14:44:14;;;;;;;13.57;2.20;;;10.90;99.90;;;;;;5035561;28;20047;-77
2021/11/08 14:46:45;;;;;;;11.00;1.83;;;10.90;99.90;;;;;;5059964;28;20432;-75
2021/11/08 14:49:18;;;;;;;14.38;2.00;;;10.80;99.90;;;;;;5037784;28;20032;-76